Time;durP1;ratioP1;P1;durP2;ratioP2;P2;SDS_P1;SDS_P2;PMS_P1;PMS_P2;Temp;Humidity;BMP_temperature;BMP_pressure;BME280_temperature;BME280_humidity;BME280_pressure;Samples;Min_cycle;Max_cycle;Signal;HPM_P1;HPM_P2
2023/08/21 05:56:19;;;;;;;10.50;8.60;;;;;;;25.12;79.28;100144.85;112586;1249;22442;-48
2023/08/21 05:58:48;;;;;;;13.60;9.20;;;;;;;25.29;78.85;100144.00;111373;1249;22502;-48
2023/08/21 06:01:28;;;;;;;18.00;9.60;;;;;;;25.44;78.64;100142.12;110812;1249;25302;-49
2023/08/21 06:03:55;;;;;;;13.20;8.70;;;;;;;25.60;77.56;100137.38;110094;1249;23888;-48
2023/08/21 06:06:32;;;;;;;15.50;9.30;;;;;;;25.73;76.78;100135.23;111298;1249;23180;-40
2023/08/21 06:08:59;;;;;;;22.90;8.40;;;;;;;25.86;76.26;100129.77;109909;1249;22499;-48
2023/08/21 06:11:27;;;;;;;12.30;8.60;;;;;;;25.99;75.58;100124.96;110810;1249;22543;-47
2023/08/21 06:13:54;;;;;;;16.40;8.80;;;;;;;26.13;75.00;100122.11;111720;1249;22449;-48
2023/08/21 06:16:21;;;;;;;13.60;8.40;;;;;;;26.29;74.13;100117.81;110937;1249;22520;-42
2023/08/21 06:18:48;;;;;;;10.10;7.70;;;;;;;26.43;73.36;100118.63;110065;1249;24182;-44
2023/08/21 06:21:15;;;;;;;16.70;8.60;;;;;;;26.60;72.94;100123.77;110716;1249;22518;-41
2023/08/21 06:23:43;;;;;;;10.10;7.90;;;;;;;26.76;72.16;100119.75;112308;1249;23222;-42
2023/08/21 06:26:10;;;;;;;14.10;8.70;;;;;;;26.89;70.93;100120.26;112816;1249;22397;-47
2023/08/21 06:28:37;;;;;;;10.10;7.30;;;;;;;27.01;70.19;100118.16;112772;1249;22245;-43
2023/08/21 06:31:07;;;;;;;13.20;7.90;;;;;;;27.14;69.32;100113.50;112901;1249;23204;-42
2023/08/21 06:33:34;;;;;;;13.90;7.50;;;;;;;27.27;68.35;100116.88;112804;1249;23184;-48
2023/08/21 06:36:01;;;;;;;13.70;8.20;;;;;;;27.38;67.40;100122.66;112853;1249;22570;-43
2023/08/21 06:38:28;;;;;;;10.70;7.80;;;;;;;27.50;66.58;100128.05;112891;1249;22426;-43
2023/08/21 06:40:56;;;;;;;12.50;8.30;;;;;;;27.61;66.39;100128.89;112887;1249;22158;-43
2023/08/21 06:43:25;;;;;;;13.60;8.70;;;;;;;27.71;66.58;100129.44;112901;1249;23279;-42
2023/08/21 06:45:55;;;;;;;8.90;7.80;;;;;;;27.82;66.14;100127.38;112297;1247;22434;-48
2023/08/21 06:48:23;;;;;;;8.70;7.50;;;;;;;27.91;65.90;100128.98;112735;1249;22239;-48
2023/08/21 06:50:50;;;;;;;10.10;7.70;;;;;;;28.00;65.48;100127.11;112863;1249;22464;-48
2023/08/21 06:53:17;;;;;;;12.20;8.50;;;;;;;28.09;65.28;100125.31;112852;1249;23164;-47
2023/08/21 06:55:47;;;;;;;13.90;8.90;;;;;;;28.21;65.14;100120.67;112855;1249;23169;-47
2023/08/21 06:58:14;;;;;;;13.80;7.90;;;;;;;28.33;65.15;100118.33;112921;1249;23079;-48
2023/08/21 07:00:41;;;;;;;15.30;7.10;;;;;;;28.45;64.62;100119.05;112975;1249;22837;-47
2023/08/21 07:03:08;;;;;;;11.40;7.50;;;;;;;28.55;64.30;100119.11;112971;1249;22363;-41
2023/08/21 07:05:35;;;;;;;13.10;7.80;;;;;;;28.67;63.76;100116.11;111830;1249;22400;-49
2023/08/21 07:08:03;;;;;;;16.10;7.90;;;;;;;28.76;63.52;100119.65;112985;1249;23359;-50
2023/08/21 07:10:31;;;;;;;12.60;8.20;;;;;;;28.89;63.72;100117.38;112961;1249;22394;-41
2023/08/21 07:12:58;;;;;;;18.20;8.50;;;;;;;29.01;63.23;100115.17;112965;1249;22349;-48
2023/08/21 07:15:25;;;;;;;16.10;8.50;;;;;;;29.11;62.52;100113.15;112811;1249;22401;-48
2023/08/21 07:17:52;;;;;;;20.30;8.80;;;;;;;29.19;61.42;100112.88;112720;1248;22447;-47
2023/08/21 07:20:19;;;;;;;19.30;9.20;;;;;;;29.25;60.94;100112.70;112628;1249;22520;-44
2023/08/21 07:22:46;;;;;;;20.20;9.20;;;;;;;29.33;60.15;100114.41;111901;1249;22520;-41
2023/08/21 07:25:14;;;;;;;12.50;8.90;;;;;;;29.43;59.36;100115.56;112375;1249;22508;-48
2023/08/21 07:27:40;;;;;;;16.70;8.70;;;;;;;29.54;58.55;100117.39;111214;1249;25257;-48
2023/08/21 07:30:08;;;;;;;14.00;8.00;;;;;;;29.60;57.95;100112.80;112707;1249;23124;-48
2023/08/21 07:32:35;;;;;;;9.60;7.20;;;;;;;29.65;57.71;100112.89;113009;1249;23146;-43
2023/08/21 07:35:02;;;;;;;10.50;8.20;;;;;;;29.70;56.84;100111.23;112430;1249;22397;-43
2023/08/21 07:37:30;;;;;;;10.00;7.60;;;;;;;29.75;57.03;100112.59;112460;1249;256862;-42
2023/08/21 07:39:57;;;;;;;12.50;7.90;;;;;;;29.81;56.79;100108.90;111266;1249;24232;-42
2023/08/21 07:42:24;;;;;;;11.10;7.60;;;;;;;29.87;56.31;100108.73;110784;1249;24360;-48
2023/08/21 07:44:51;;;;;;;15.20;7.90;;;;;;;29.88;55.79;100112.21;112940;1249;22173;-49
2023/08/21 07:47:18;;;;;;;12.70;7.10;;;;;;;29.88;55.70;100109.34;112902;1249;22386;-41
2023/08/21 07:49:45;;;;;;;13.20;7.50;;;;;;;29.92;55.89;100110.26;112928;1249;22863;-42
2023/08/21 07:52:12;;;;;;;14.10;7.70;;;;;;;29.98;56.07;100110.72;112924;1249;22901;-47
2023/08/21 07:54:39;;;;;;;8.00;7.00;;;;;;;30.05;56.00;100111.70;112913;1249;22378;-44
2023/08/21 07:57:06;;;;;;;11.80;7.60;;;;;;;30.11;55.24;100107.60;112900;1249;22386;-42
2023/08/21 07:59:33;;;;;;;11.10;7.20;;;;;;;30.16;55.20;100106.34;112874;1249;22593;-43
2023/08/21 08:02:00;;;;;;;9.90;6.20;;;;;;;30.21;54.75;100107.84;112847;1249;22371;-47
2023/08/21 08:04:28;;;;;;;11.60;7.30;;;;;;;30.27;54.87;100102.70;112818;1248;22482;-48
2023/08/21 08:06:55;;;;;;;8.60;6.40;;;;;;;30.33;54.85;100103.23;112879;1248;22850;-43
2023/08/21 08:09:22;;;;;;;12.90;7.50;;;;;;;30.41;54.27;100101.62;112811;1249;22375;-43
2023/08/21 08:11:49;;;;;;;14.10;7.20;;;;;;;30.51;54.50;100102.92;112770;1249;22864;-46
2023/08/21 08:14:16;;;;;;;11.40;6.10;;;;;;;30.62;53.13;100102.36;112857;1249;22174;-48
2023/08/21 08:16:43;;;;;;;11.00;5.90;;;;;;;30.73;53.08;100099.65;112813;1249;22423;-49
2023/08/21 08:19:10;;;;;;;6.00;5.40;;;;;;;30.82;51.79;100099.89;112797;1249;22194;-48
2023/08/21 08:21:37;;;;;;;7.40;6.10;;;;;;;30.87;51.55;100099.84;112795;1249;22747;-44
2023/08/21 08:24:05;;;;;;;8.10;5.50;;;;;;;30.97;51.26;100102.59;112826;1249;22402;-42
2023/08/21 08:26:32;;;;;;;17.20;6.20;;;;;;;31.05;50.75;100098.41;112908;1249;23362;-42
2023/08/21 08:28:59;;;;;;;9.00;5.50;;;;;;;31.15;50.48;100095.77;112934;1249;22957;-42
2023/08/21 08:31:27;;;;;;;7.50;5.30;;;;;;;31.21;49.94;100092.73;112940;1249;22235;-42
2023/08/21 08:33:54;;;;;;;7.60;6.20;;;;;;;31.25;50.18;100096.66;112797;1249;22521;-45
2023/08/21 08:36:21;;;;;;;6.80;6.10;;;;;;;31.31;49.95;100093.30;112146;1249;22479;-43
2023/08/21 08:38:48;;;;;;;7.30;5.80;;;;;;;31.35;49.51;100093.08;110680;1249;25204;-41
2023/08/21 08:41:24;;;;;;;7.10;5.20;;;;;;;31.35;49.41;100093.05;110799;1249;22270;-49
2023/08/21 08:43:51;;;;;;;8.00;5.40;;;;;;;31.35;49.21;100088.04;111029;1249;24244;-48
2023/08/21 08:46:19;;;;;;;7.30;6.20;;;;;;;31.33;48.00;100086.23;110393;1248;24214;-42
2023/08/21 08:48:46;;;;;;;9.20;6.40;;;;;;;31.30;47.56;100084.36;110411;1249;22507;-43
2023/08/21 08:51:13;;;;;;;8.20;6.30;;;;;;;31.25;47.81;100078.80;110701;1249;22592;-49
2023/08/21 08:53:40;;;;;;;7.20;6.20;;;;;;;31.26;48.04;100081.48;111136;1249;22461;-43
2023/08/21 08:56:07;;;;;;;8.10;5.70;;;;;;;31.29;47.76;100084.13;113053;1249;22411;-45
2023/08/21 08:58:34;;;;;;;6.60;5.70;;;;;;;31.35;47.47;100079.94;111548;1248;22527;-44
2023/08/21 09:01:01;;;;;;;13.40;5.40;;;;;;;31.44;46.71;100076.73;111033;1249;22505;-43
2023/08/21 09:03:29;;;;;;;6.70;5.10;;;;;;;31.48;44.99;100080.71;112124;1248;26796;-48
2023/08/21 09:06:00;;;;;;;11.00;6.30;;;;;;;31.46;45.10;100078.71;111174;1249;23940;-49
2023/08/21 09:08:27;;;;;;;6.50;5.80;;;;;;;31.44;45.38;100072.29;110631;1249;22995;-47
2023/08/21 09:10:54;;;;;;;7.90;6.00;;;;;;;31.49;45.71;100068.77;110672;1248;22566;-50
2023/08/21 09:13:21;;;;;;;9.60;5.60;;;;;;;31.55;45.57;100068.07;110556;1249;22755;-43
2023/08/21 09:15:52;;;;;;;6.60;5.50;;;;;;;31.59;44.65;100067.80;111776;1249;22413;-49
2023/08/21 09:18:19;;;;;;;11.10;6.20;;;;;;;31.60;43.87;100068.47;111705;1249;22980;-43
2023/08/21 09:20:48;;;;;;;9.00;6.00;;;;;;;31.62;43.88;100068.71;111367;1249;25294;-46
2023/08/21 09:23:16;;;;;;;12.70;6.10;;;;;;;31.64;44.18;100061.77;112910;1249;22504;-47
2023/08/21 09:25:46;;;;;;;9.10;5.60;;;;;;;31.65;43.75;100067.44;112892;1249;22616;-43
2023/08/21 09:28:13;;;;;;;9.00;5.70;;;;;;;31.63;42.89;100067.30;112327;1249;22965;-42
2023/08/21 09:30:53;;;;;;;10.20;6.10;;;;;;;31.61;43.48;100064.01;112991;1249;22399;-42
2023/08/21 09:33:21;;;;;;;11.40;6.40;;;;;;;31.62;44.15;100063.38;112995;1249;22419;-49
2023/08/21 09:35:49;;;;;;;12.50;7.00;;;;;;;31.60;43.56;100061.80;112996;1248;22392;-48
2023/08/21 09:38:16;;;;;;;10.00;6.20;;;;;;;31.58;44.34;100062.48;113038;1249;23233;-48
2023/08/21 09:40:44;;;;;;;7.90;6.60;;;;;;;31.63;43.91;100057.34;113049;1249;22381;-49
2023/08/21 09:43:11;;;;;;;11.20;6.30;;;;;;;31.68;44.11;100058.92;112228;1249;22528;-45
2023/08/21 09:45:39;;;;;;;13.80;6.70;;;;;;;31.68;43.97;100053.14;112969;1249;22371;-47
2023/08/21 09:48:07;;;;;;;7.80;6.70;;;;;;;31.70;44.47;100055.09;112683;1249;22359;-50
2023/08/21 09:50:34;;;;;;;9.10;6.90;;;;;;;31.77;43.93;100054.81;112294;1249;22498;-44
2023/08/21 09:53:02;;;;;;;8.70;6.70;;;;;;;31.82;44.28;100049.02;112342;1249;22518;-50
2023/08/21 09:55:31;;;;;;;10.80;6.50;;;;;;;31.89;44.60;100051.98;112784;1249;22447;-43
2023/08/21 09:58:01;;;;;;;7.80;6.20;;;;;;;31.93;44.20;100048.14;112817;1249;22363;-49
2023/08/21 10:00:32;;;;;;;10.30;6.60;;;;;;;31.97;44.02;100045.06;112966;1249;22437;-45
2023/08/21 10:03:04;;;;;;;6.70;5.90;;;;;;;32.01;43.93;100041.75;111680;1249;25423;-44
2023/08/21 10:05:32;;;;;;;9.70;6.30;;;;;;;32.10;44.21;100042.91;112139;1248;22426;-43
2023/08/21 10:08:02;;;;;;;11.70;5.50;;;;;;;32.16;44.12;100041.34;112524;1249;22433;-47
2023/08/21 10:10:37;;;;;;;8.30;5.70;;;;;;;32.18;43.20;100040.35;113004;1249;22407;-48
2023/08/21 10:13:04;;;;;;;10.60;5.90;;;;;;;32.19;42.98;100042.12;112212;1249;27118;-44
2023/08/21 10:15:35;;;;;;;5.90;5.30;;;;;;;32.17;42.89;100042.10;112556;1249;22481;-48
2023/08/21 10:18:32;;;;;;;6.80;6.10;;;;;;;32.11;43.05;100039.80;111409;1249;23073;-48
2023/08/21 10:21:15;;;;;;;7.20;5.50;;;;;;;32.09;42.79;100042.80;110372;1249;24179;-43
2023/08/21 10:23:42;;;;;;;7.00;5.60;;;;;;;32.16;42.54;100043.98;111613;1243;22434;-47
2023/08/21 10:26:13;;;;;;;8.20;4.90;;;;;;;32.30;42.06;100044.69;112170;1248;22523;-48
2023/08/21 10:28:59;;;;;;;7.30;5.00;;;;;;;32.42;41.19;100041.89;111963;1248;22572;-47
2023/08/21 10:31:36;;;;;;;7.70;5.60;;;;;;;32.61;40.90;100041.35;110665;1249;22525;-49
2023/08/21 10:34:04;;;;;;;6.20;5.50;;;;;;;32.85;40.69;100040.52;110467;1249;23240;-48
2023/08/21 10:36:44;;;;;;;10.50;5.50;;;;;;;32.98;40.45;100036.73;111870;1249;23449;-42
2023/08/21 10:39:25;;;;;;;8.20;5.20;;;;;;;33.10;40.85;100046.39;110622;1249;22581;-47
2023/08/21 10:42:09;;;;;;;10.00;6.00;;;;;;;33.27;39.72;100038.38;111612;1249;22507;-49
2023/08/21 10:44:42;;;;;;;8.00;5.10;;;;;;;33.56;39.09;100035.51;111376;1249;22261;-47
2023/08/21 10:47:20;;;;;;;11.50;5.90;;;;;;;33.83;38.08;100036.89;113009;1249;22327;-43
2023/08/21 10:49:49;;;;;;;9.90;4.80;;;;;;;34.02;37.19;100038.44;112392;1249;25179;-48
2023/08/21 10:52:26;;;;;;;9.80;4.40;;;;;;;34.24;36.91;100034.70;111734;1249;22665;-42
2023/08/21 10:54:57;;;;;;;8.90;4.70;;;;;;;34.44;36.64;100039.11;111529;1248;22749;-42
2023/08/21 10:57:25;;;;;;;6.50;5.10;;;;;;;34.53;37.10;100037.31;110289;1249;22576;-42
2023/08/21 10:59:58;;;;;;;10.90;5.10;;;;;;;34.69;36.80;100038.88;110927;1249;26460;-43
2023/08/21 11:02:29;;;;;;;5.80;4.80;;;;;;;34.87;36.91;100039.98;111837;1248;22404;-43
2023/08/21 11:04:56;;;;;;;7.20;5.00;;;;;;;35.04;36.55;100036.24;113004;1249;22832;-44
2023/08/21 11:07:24;;;;;;;6.60;4.90;;;;;;;35.23;35.35;100028.11;112982;1249;23629;-43
2023/08/21 11:09:51;;;;;;;6.10;4.90;;;;;;;35.43;35.00;100020.64;110916;1249;22495;-44
2023/08/21 11:12:22;;;;;;;6.80;4.70;;;;;;;35.53;35.16;100023.56;110598;1248;23344;-50
2023/08/21 11:14:49;;;;;;;5.90;5.30;;;;;;;35.47;35.45;100019.38;110950;1249;23242;-50
2023/08/21 11:17:18;;;;;;;9.40;5.30;;;;;;;35.35;35.85;100017.59;111311;1248;23217;-48
2023/08/21 11:19:46;;;;;;;5.70;4.90;;;;;;;35.17;36.03;100017.30;110732;1244;24172;-44
2023/08/21 11:22:13;;;;;;;6.00;5.10;;;;;;;34.86;36.03;100020.08;111110;1249;23182;-49
2023/08/21 11:24:45;;;;;;;10.80;4.90;;;;;;;34.39;36.44;100019.05;112735;1249;22428;-42
2023/08/21 11:27:17;;;;;;;8.60;4.90;;;;;;;33.99;37.12;100020.86;112102;1248;22445;-45
2023/08/21 11:29:46;;;;;;;5.90;5.30;;;;;;;33.73;37.78;100021.27;113013;1249;22443;-43
2023/08/21 11:32:14;;;;;;;8.90;6.20;;;;;;;33.59;38.04;100021.61;112842;1248;23056;-43
2023/08/21 11:34:42;;;;;;;6.50;4.80;;;;;;;33.44;37.94;100019.83;112995;1249;22378;-44
2023/08/21 11:37:09;;;;;;;6.10;5.10;;;;;;;33.23;37.88;100021.98;112974;1249;23688;-43
2023/08/21 11:39:44;;;;;;;5.10;4.70;;;;;;;32.99;38.20;100018.55;112789;1249;22235;-43
2023/08/21 11:42:12;;;;;;;8.20;5.20;;;;;;;32.88;38.42;100013.49;113035;1249;22976;-49
2023/08/21 11:45:00;;;;;;;7.50;4.90;;;;;;;32.87;38.95;100011.80;113016;1248;22584;-51
2023/08/21 11:47:31;;;;;;;6.50;5.40;;;;;;;32.92;39.82;100008.00;113026;1248;22328;-44
2023/08/21 11:50:06;;;;;;;9.30;4.70;;;;;;;32.94;39.81;100010.20;113035;1248;23173;-44
2023/08/21 11:52:35;;;;;;;8.30;4.90;;;;;;;32.87;39.61;100007.02;112978;1249;22878;-44
2023/08/21 11:55:02;;;;;;;6.70;5.20;;;;;;;32.69;39.61;100010.98;112926;1249;22376;-49
2023/08/21 11:57:30;;;;;;;5.80;5.10;;;;;;;32.49;39.93;100012.00;112568;1248;22597;-42
2023/08/21 11:59:57;;;;;;;5.20;4.70;;;;;;;32.33;40.01;100012.77;111933;1248;23112;-43
2023/08/21 12:02:25;;;;;;;9.50;5.70;;;;;;;32.19;40.62;100011.38;113045;1249;22378;-48
2023/08/21 12:05:01;;;;;;;5.80;5.00;;;;;;;32.05;40.80;100002.59;112944;1249;23020;-44
2023/08/21 12:07:28;;;;;;;7.70;5.80;;;;;;;31.97;41.29;100001.44;111315;1249;23842;-43
2023/08/21 12:09:55;;;;;;;5.90;5.30;;;;;;;31.91;41.61;99998.58;110276;1248;22605;-42
2023/08/21 12:12:23;;;;;;;12.20;5.40;;;;;;;31.84;41.65;100000.31;110369;1249;24211;-45
2023/08/21 12:14:50;;;;;;;6.00;5.40;;;;;;;31.73;41.98;100004.67;112849;1248;22505;-46
2023/08/21 12:17:17;;;;;;;6.00;5.50;;;;;;;31.61;42.33;100004.02;110637;1248;22471;-43
2023/08/21 12:19:44;;;;;;;5.60;4.90;;;;;;;31.51;42.87;100012.17;112981;1248;22530;-48
2023/08/21 12:22:12;;;;;;;8.80;5.90;;;;;;;31.42;43.25;100016.30;112248;1249;25649;-49
